Terminal Aerodrome Forecast
Issued by NWS

Home | Current Version | Previous Version | Graphics & Text | Print | Product List | Glossary On
Versions: 1 2 3 4 5 6 7 8 9 10 11 12 13 14 15 16 17 18 19 20 21 22 23 24 25 26 27 28
000
FTUS43 KBIS 251035 AAC
TAFJMS
TAF AMD
KJMS 251035Z 2511/2606 15005KT 5SM BR SCT015
     FM251200 15013KT P6SM SCT015
     FM251600 16016KT P6SM SCT015
     FM260000 14009KT P6SM BKN200=

USA.gov is the U.S. government's official web portal to all federal, state and local government web resources and services.